createdAt,value
2022-09-07T00:01:04.321Z,1.00
2022-09-07T00:03:31.444Z,1.00
2022-09-07T00:05:58.769Z,1.00
2022-09-07T00:08:27.530Z,0.70
2022-09-07T00:11:02.294Z,0.80
2022-09-07T00:13:30.846Z,0.70
2022-09-07T00:15:58.325Z,0.90
2022-09-07T00:18:25.727Z,0.80
2022-09-07T00:21:00.291Z,0.85
2022-09-07T00:23:27.773Z,0.60
2022-09-07T00:25:55.056Z,0.90
2022-09-07T00:28:22.146Z,0.77
2022-09-07T00:30:49.259Z,0.80
2022-09-07T00:33:16.355Z,0.80
2022-09-07T00:35:43.473Z,0.95
2022-09-07T00:38:10.672Z,1.10
2022-09-07T00:40:37.783Z,1.08
2022-09-07T00:43:05.535Z,0.90
2022-09-07T00:45:33.228Z,0.85
2022-09-07T00:48:00.347Z,1.13
2022-09-07T00:50:39.711Z,1.08
2022-09-07T00:53:16.583Z,1.23
2022-09-07T00:55:45.905Z,1.17
2022-09-07T00:58:13.827Z,1.13
2022-09-07T01:00:41.473Z,1.00
2022-09-07T01:03:09.385Z,1.00
2022-09-07T01:05:40.361Z,1.00
2022-09-07T01:08:07.724Z,0.80
2022-09-07T01:10:35.438Z,0.88
2022-09-07T01:13:02.582Z,0.88
2022-09-07T01:15:50.111Z,1.02
2022-09-07T01:18:26.835Z,0.90
2022-09-07T01:21:05.645Z,0.95
2022-09-07T01:23:56.397Z,1.05
2022-09-07T01:26:35.414Z,1.00
2022-09-07T01:29:22.767Z,0.77
2022-09-07T01:31:57.522Z,0.73
2022-09-07T01:34:26.467Z,0.70
2022-09-07T01:37:02.847Z,0.95
2022-09-07T01:39:33.712Z,0.90
2022-09-07T01:42:10.984Z,0.93
2022-09-07T01:44:38.160Z,0.70
2022-09-07T01:47:25.577Z,0.82
2022-09-07T01:49:55.783Z,0.70
2022-09-07T01:52:27.948Z,0.88
2022-09-07T01:55:07.576Z,0.80
2022-09-07T01:57:40.153Z,0.73
2022-09-07T02:00:09.338Z,0.73
2022-09-07T02:02:41.799Z,0.80
2022-09-07T02:05:11.602Z,0.90
2022-09-07T02:07:43.327Z,0.80
2022-09-07T02:10:19.156Z,0.70
2022-09-07T02:12:54.260Z,0.90
2022-09-07T02:15:25.821Z,0.80
2022-09-07T02:17:55.150Z,0.80
2022-09-07T02:20:25.756Z,0.90
2022-09-07T02:22:55.292Z,0.90
2022-09-07T02:25:27.850Z,0.90
2022-09-07T02:28:02.995Z,0.80
2022-09-07T02:30:30.160Z,0.95
2022-09-07T02:32:57.309Z,1.00
2022-09-07T02:35:24.458Z,0.80
2022-09-07T02:37:53.215Z,0.90
2022-09-07T02:42:48.346Z,0.70
2022-09-07T02:45:17.135Z,0.85
2022-09-07T02:47:53.048Z,0.70
2022-09-07T02:50:35.368Z,0.80
2022-09-07T02:53:02.487Z,0.90
2022-09-07T02:55:29.563Z,0.90
2022-09-07T02:58:15.353Z,0.90
2022-09-07T03:00:55.320Z,0.82
2022-09-07T03:03:25.233Z,0.80
2022-09-07T03:06:04.272Z,0.90
2022-09-07T03:08:39.820Z,0.80
2022-09-07T03:11:07.414Z,0.70
2022-09-07T03:13:34.512Z,0.82
2022-09-07T03:16:01.771Z,0.80
2022-09-07T03:18:29.270Z,0.65
2022-09-07T03:20:56.721Z,0.80
2022-09-07T03:23:24.205Z,0.70
2022-09-07T03:25:51.454Z,0.77
2022-09-07T03:28:18.639Z,0.85
2022-09-07T03:30:47.440Z,0.75
2022-09-07T03:33:15.896Z,0.82
2022-09-07T03:35:46.536Z,0.80
2022-09-07T03:38:13.692Z,0.95
2022-09-07T03:40:40.957Z,0.65
2022-09-07T03:43:08.210Z,0.90
2022-09-07T03:45:35.403Z,0.90
2022-09-07T03:48:02.600Z,0.70
2022-09-07T03:50:29.849Z,0.80
2022-09-07T03:52:56.944Z,0.80
2022-09-07T03:55:24.281Z,0.73
2022-09-07T03:57:51.372Z,1.10
2022-09-07T04:00:18.461Z,1.00
2022-09-07T04:02:45.650Z,0.80
2022-09-07T04:05:12.805Z,0.82
2022-09-07T04:07:40.020Z,1.00
2022-09-07T04:10:07.468Z,0.85
2022-09-07T04:12:34.591Z,1.00
2022-09-07T04:15:01.767Z,0.82
2022-09-07T04:17:28.893Z,0.80
2022-09-07T04:19:56.226Z,0.90
2022-09-07T04:22:23.386Z,0.80
2022-09-07T04:24:50.563Z,0.88
2022-09-07T04:27:17.648Z,0.85
2022-09-07T04:29:44.804Z,0.82
2022-09-07T04:32:15.728Z,0.80
2022-09-07T04:34:43.238Z,0.70
2022-09-07T04:37:10.346Z,0.85
2022-09-07T04:39:37.615Z,0.65
2022-09-07T04:42:04.928Z,0.70
2022-09-07T04:44:32.144Z,0.82
2022-09-07T04:46:59.292Z,0.77
2022-09-07T04:49:26.387Z,0.93
2022-09-07T04:51:53.490Z,1.10
2022-09-07T04:54:20.662Z,0.90
2022-09-07T04:56:47.795Z,1.20
2022-09-07T04:59:14.876Z,1.00
2022-09-07T05:01:42.053Z,1.10
2022-09-07T05:04:09.267Z,0.98
2022-09-07T05:06:36.367Z,1.10
2022-09-07T05:09:03.591Z,1.05
2022-09-07T05:11:30.734Z,1.20
2022-09-07T05:14:02.015Z,1.13
2022-09-07T05:16:29.754Z,1.30
2022-09-07T05:18:58.259Z,1.40
2022-09-07T05:21:26.954Z,1.30
2022-09-07T05:26:22.263Z,1.25
2022-09-07T05:28:50.412Z,1.20
2022-09-07T05:31:19.300Z,0.95
2022-09-07T05:36:39.001Z,1.20
2022-09-07T05:39:07.136Z,1.02
2022-09-07T05:41:34.239Z,1.15
2022-09-07T05:49:15.558Z,1.10
2022-09-07T05:51:42.744Z,1.33
2022-09-07T05:54:11.272Z,1.40
2022-09-07T05:56:38.538Z,1.20
2022-09-07T05:59:05.659Z,1.25
2022-09-07T06:01:35.064Z,1.15
2022-09-07T06:04:02.362Z,1.23
2022-09-07T06:06:29.522Z,1.10
2022-09-07T06:08:57.692Z,1.00
2022-09-07T06:11:25.739Z,1.10
2022-09-07T06:13:53.073Z,1.15
2022-09-07T06:16:20.759Z,1.05
2022-09-07T06:18:48.882Z,1.08
2022-09-07T06:21:17.776Z,1.42
2022-09-07T06:23:45.447Z,1.10
2022-09-07T06:26:12.975Z,1.13
2022-09-07T06:28:41.488Z,1.10
2022-09-07T06:31:13.373Z,1.30
2022-09-07T06:33:41.420Z,1.10
2022-09-07T06:36:11.589Z,1.13
2022-09-07T06:38:39.370Z,1.75
2022-09-07T06:43:56.742Z,1.40
2022-09-07T06:49:11.461Z,1.50
2022-09-07T06:51:39.285Z,1.60
2022-09-07T06:56:53.569Z,1.60
2022-09-07T06:59:20.665Z,1.27
2022-09-07T07:01:47.832Z,1.40
2022-09-07T07:04:15.046Z,1.38
2022-09-07T07:06:42.398Z,1.55
2022-09-07T07:09:11.903Z,1.38
2022-09-07T07:11:39.042Z,1.30
2022-09-07T07:14:06.275Z,1.38
2022-09-07T07:16:33.441Z,1.60
2022-09-07T07:19:00.981Z,1.45
2022-09-07T07:21:38.374Z,1.30
2022-09-07T07:24:15.270Z,1.92
2022-09-07T07:26:43.961Z,1.40
2022-09-07T07:31:39.287Z,1.80
2022-09-07T07:34:09.107Z,1.40
2022-09-07T07:36:36.327Z,1.48
2022-09-07T07:39:04.610Z,1.60
2022-09-07T07:44:20.370Z,1.30
2022-09-07T07:46:48.888Z,1.52
2022-09-07T07:49:16.087Z,1.20
2022-09-07T07:54:30.478Z,1.30
2022-09-07T07:56:57.538Z,1.65
2022-09-07T07:59:25.992Z,1.35
2022-09-07T08:01:53.158Z,1.30
2022-09-07T08:04:20.472Z,1.30
2022-09-07T08:06:47.542Z,1.30
2022-09-07T08:09:14.640Z,1.40
2022-09-07T08:11:42.207Z,1.15
2022-09-07T08:14:09.542Z,1.52
2022-09-07T08:16:37.633Z,1.58
2022-09-07T08:19:05.755Z,1.33
2022-09-07T08:21:32.974Z,1.35
2022-09-07T08:24:00.097Z,1.33
2022-09-07T08:26:27.611Z,1.40
2022-09-07T08:28:55.303Z,1.35
2022-09-07T08:31:22.591Z,1.23
2022-09-07T08:33:49.730Z,1.20
2022-09-07T08:36:18.286Z,1.00
2022-09-07T08:38:45.505Z,1.33
2022-09-07T08:41:28.654Z,1.50
2022-09-07T08:44:00.540Z,1.75
2022-09-07T08:46:30.927Z,1.30
2022-09-07T08:48:59.772Z,1.30
2022-09-07T08:51:36.586Z,1.50
2022-09-07T08:54:05.163Z,1.40
2022-09-07T08:59:03.743Z,1.10
2022-09-07T09:01:37.668Z,1.15
2022-09-07T09:06:11.038Z,1.13
2022-09-07T09:07:16.514Z,1.30
2022-09-07T09:10:02.123Z,1.10
2022-09-07T09:12:48.507Z,1.40
2022-09-07T09:15:21.806Z,1.10
2022-09-07T09:17:53.848Z,1.30
2022-09-07T09:20:37.098Z,1.10
2022-09-07T09:23:17.997Z,0.93
2022-09-07T09:28:13.121Z,1.40
2022-09-07T09:30:40.297Z,1.15
2022-09-07T09:33:21.272Z,0.90
2022-09-07T09:38:34.050Z,0.98
2022-09-07T09:41:04.355Z,1.15
2022-09-07T09:43:35.865Z,0.93
2022-09-07T09:46:18.637Z,1.00
2022-09-07T09:48:50.794Z,1.10
2022-09-07T09:54:25.383Z,1.10
2022-09-07T09:56:52.761Z,1.27
2022-09-07T10:04:54.846Z,1.20
2022-09-07T10:07:23.677Z,1.10
2022-09-07T10:09:51.843Z,1.20
2022-09-07T10:12:22.027Z,0.90
2022-09-07T10:14:49.366Z,1.00
2022-09-07T10:17:25.470Z,1.02
2022-09-07T10:19:52.779Z,1.10
2022-09-07T10:22:32.154Z,0.80
2022-09-07T10:25:00.968Z,1.20
2022-09-07T10:27:46.794Z,1.20
2022-09-07T10:30:15.966Z,0.68
2022-09-07T10:32:42.994Z,0.70
2022-09-07T10:35:17.001Z,0.80
2022-09-07T10:37:44.116Z,0.82
2022-09-07T10:40:21.942Z,1.30
2022-09-07T10:45:50.695Z,1.20
2022-09-07T10:48:23.775Z,1.05
2022-09-07T10:50:51.847Z,1.00
2022-09-07T10:53:41.237Z,1.33
2022-09-07T10:56:15.657Z,1.40
2022-09-07T11:01:41.869Z,1.20
2022-09-07T11:04:27.692Z,1.10
2022-09-07T11:06:58.775Z,1.00
2022-09-07T11:09:48.980Z,1.20
2022-09-07T11:12:18.996Z,1.17
2022-09-07T11:14:50.736Z,1.15
2022-09-07T11:17:19.419Z,1.20
2022-09-07T11:22:33.051Z,1.02
2022-09-07T11:28:05.243Z,1.10
2022-09-07T11:30:35.773Z,0.95
2022-09-07T11:33:06.003Z,1.30
2022-09-07T11:35:40.346Z,0.80
2022-09-07T11:38:14.453Z,1.08
2022-09-07T11:40:56.250Z,1.40
2022-09-07T11:43:26.039Z,1.08
2022-09-07T11:45:56.108Z,1.10
2022-09-07T11:48:35.724Z,0.93
2022-09-07T11:51:06.693Z,1.00
2022-09-07T11:53:36.781Z,1.27
2022-09-07T11:56:05.454Z,1.00
2022-09-07T12:01:15.718Z,1.17
2022-09-07T12:04:02.068Z,0.98
2022-09-07T12:06:32.077Z,1.27
2022-09-07T12:09:17.640Z,1.00
2022-09-07T12:12:03.576Z,0.90
2022-09-07T12:14:33.695Z,1.00
2022-09-07T12:17:06.791Z,0.80
2022-09-07T12:19:33.935Z,0.82
2022-09-07T12:22:01.224Z,0.93
2022-09-07T12:24:31.131Z,0.98
2022-09-07T12:26:59.704Z,1.15
2022-09-07T12:29:28.374Z,0.90
2022-09-07T12:34:34.023Z,1.10
2022-09-07T12:37:12.528Z,1.00
2022-09-07T12:39:43.940Z,0.90
2022-09-07T12:42:32.879Z,0.93
2022-09-07T12:45:20.293Z,1.00
2022-09-07T12:47:57.166Z,0.65
2022-09-07T12:50:39.249Z,0.90
2022-09-07T12:53:13.380Z,0.75
2022-09-07T12:56:16.757Z,0.80
2022-09-07T12:58:52.173Z,1.00
2022-09-07T13:01:25.443Z,0.80
2022-09-07T13:03:59.726Z,0.80
2022-09-07T13:09:34.080Z,0.82
2022-09-07T13:12:04.661Z,0.98
2022-09-07T13:14:34.482Z,0.52
2022-09-07T13:17:22.719Z,0.65
2022-09-07T13:19:51.058Z,0.70
2022-09-07T13:22:44.202Z,0.80
2022-09-07T13:30:12.800Z,0.90
2022-09-07T13:35:28.308Z,0.80
2022-09-07T13:37:57.247Z,0.73
2022-09-07T13:40:40.568Z,0.90
2022-09-07T13:43:15.947Z,0.77
2022-09-07T13:45:55.325Z,0.88
2022-09-07T13:48:22.547Z,0.95
2022-09-07T13:51:09.604Z,1.27
2022-09-07T13:56:06.703Z,0.60
2022-09-07T13:58:35.478Z,0.90
2022-09-07T14:01:16.805Z,0.95
2022-09-07T14:04:02.436Z,0.95
2022-09-07T14:06:31.519Z,0.93
2022-09-07T14:08:58.593Z,1.33
2022-09-07T14:11:28.181Z,1.00
2022-09-07T14:14:14.202Z,0.80
2022-09-07T14:16:42.848Z,0.73
2022-09-07T14:21:37.091Z,1.00
2022-09-07T14:24:06.117Z,0.88
2022-09-07T14:26:33.264Z,0.75
2022-09-07T14:29:01.599Z,0.82
2022-09-07T14:31:28.715Z,0.75
2022-09-07T14:33:57.074Z,1.10
2022-09-07T14:36:47.978Z,1.10
2022-09-07T14:39:16.949Z,0.98
2022-09-07T14:41:44.938Z,1.25
2022-09-07T14:44:30.228Z,0.88
2022-09-07T14:46:58.552Z,0.70
2022-09-07T14:49:25.655Z,0.90
2022-09-07T14:51:53.501Z,1.00
2022-09-07T14:54:22.530Z,0.90
2022-09-07T14:57:01.775Z,0.90
2022-09-07T14:59:39.414Z,0.85
2022-09-07T15:02:18.900Z,1.05
2022-09-07T15:04:47.329Z,1.27
2022-09-07T15:07:30.461Z,0.80
2022-09-07T15:10:12.629Z,0.82
2022-09-07T15:12:41.888Z,0.70
2022-09-07T15:15:32.603Z,0.85
2022-09-07T15:18:06.080Z,0.90
2022-09-07T15:20:39.871Z,1.00
2022-09-07T15:23:11.803Z,0.70
2022-09-07T15:25:40.716Z,1.48
2022-09-07T15:28:08.357Z,0.75
2022-09-07T15:30:35.523Z,0.90
2022-09-07T15:33:02.757Z,0.80
2022-09-07T15:35:29.846Z,0.90
2022-09-07T15:38:05.532Z,1.00
2022-09-07T15:40:56.342Z,0.80
2022-09-07T15:43:31.180Z,0.73
2022-09-07T15:45:58.426Z,0.70
2022-09-07T15:48:26.020Z,0.90
2022-09-07T15:51:00.991Z,0.70
2022-09-07T15:56:17.281Z,0.80
2022-09-07T15:58:46.955Z,0.98
2022-09-07T16:06:29.559Z,0.90
2022-09-07T16:08:56.780Z,0.98
2022-09-07T16:11:25.086Z,0.95
2022-09-07T16:14:01.725Z,0.75
2022-09-07T16:19:20.503Z,0.90
2022-09-07T16:21:47.932Z,1.20
2022-09-07T16:24:15.100Z,1.00
2022-09-07T16:26:42.273Z,0.63
2022-09-07T16:29:09.374Z,1.00
2022-09-07T16:31:37.093Z,0.57
2022-09-07T16:34:04.692Z,0.90
2022-09-07T16:36:31.981Z,1.00
2022-09-07T16:39:00.782Z,0.80
2022-09-07T16:41:31.968Z,0.80
2022-09-07T16:43:59.497Z,0.82
2022-09-07T16:46:28.215Z,0.80
2022-09-07T16:53:50.883Z,0.80
2022-09-07T16:56:19.365Z,0.70
2022-09-07T16:58:48.163Z,0.85
2022-09-07T17:01:16.698Z,1.00
2022-09-07T17:03:44.600Z,0.90
2022-09-07T17:06:13.077Z,0.90
2022-09-07T17:08:40.696Z,1.10
2022-09-07T17:11:09.955Z,0.80
2022-09-07T17:13:38.520Z,0.80
2022-09-07T17:16:12.166Z,1.02
2022-09-07T17:21:33.880Z,0.98
2022-09-07T17:24:01.726Z,0.77
2022-09-07T17:26:34.841Z,1.08
2022-09-07T17:29:02.127Z,0.90
2022-09-07T17:34:17.846Z,0.85
2022-09-07T17:36:44.967Z,0.70
2022-09-07T17:39:17.313Z,1.08
2022-09-07T17:41:45.581Z,0.68
2022-09-07T17:44:12.802Z,0.90
2022-09-07T17:46:39.902Z,1.00
2022-09-07T17:49:08.711Z,1.00
2022-09-07T17:51:36.366Z,1.00
2022-09-07T17:54:09.627Z,1.20
2022-09-07T17:56:37.405Z,1.33
2022-09-07T18:04:23.980Z,0.90
2022-09-07T18:06:51.447Z,1.00
2022-09-07T18:09:19.829Z,1.00
2022-09-07T18:11:48.963Z,0.70
2022-09-07T18:14:16.737Z,1.23
2022-09-07T18:16:45.051Z,1.20
2022-09-07T18:19:12.649Z,1.17
2022-09-07T18:21:41.847Z,1.10
2022-09-07T18:24:13.534Z,1.00
2022-09-07T18:26:41.375Z,1.00
2022-09-07T18:29:25.859Z,1.20
2022-09-07T18:31:55.734Z,1.50
2022-09-07T18:34:23.128Z,1.30
2022-09-07T18:36:50.679Z,1.20
2022-09-07T18:39:18.201Z,1.20
2022-09-07T18:41:45.356Z,1.30
2022-09-07T18:49:26.749Z,1.10
2022-09-07T18:57:08.724Z,1.13
2022-09-07T18:59:36.087Z,1.48
2022-09-07T19:02:05.905Z,1.55
2022-09-07T19:07:24.986Z,1.10
2022-09-07T19:09:56.051Z,1.20
2022-09-07T19:12:24.306Z,1.10
2022-09-07T19:14:51.721Z,1.52
2022-09-07T19:17:18.982Z,1.20
2022-09-07T19:19:46.127Z,1.48
2022-09-07T19:22:13.200Z,1.30
2022-09-07T19:24:40.578Z,1.25
2022-09-07T19:27:07.724Z,1.40
2022-09-07T19:29:35.355Z,1.08
2022-09-07T19:32:06.853Z,1.48
2022-09-07T19:34:35.032Z,1.30
2022-09-07T19:37:02.698Z,0.95
2022-09-07T19:39:30.028Z,1.10
2022-09-07T19:41:57.184Z,1.20
2022-09-07T19:44:24.305Z,1.30
2022-09-07T19:46:51.603Z,1.55
2022-09-07T19:49:18.948Z,1.17
2022-09-07T19:51:46.144Z,1.23
2022-09-07T19:54:13.739Z,1.20
2022-09-07T19:56:42.339Z,1.48
2022-09-07T19:59:09.576Z,1.27
2022-09-07T20:01:37.766Z,1.30
2022-09-07T20:04:06.791Z,1.30
2022-09-07T20:06:34.470Z,1.50
2022-09-07T20:09:03.274Z,1.40
2022-09-07T20:11:30.413Z,1.20
2022-09-07T20:13:57.590Z,1.30
2022-09-07T20:16:25.306Z,1.33
2022-09-07T20:18:52.810Z,1.30
2022-09-07T20:21:23.850Z,1.15
2022-09-07T20:23:51.430Z,1.33
2022-09-07T20:26:19.838Z,1.15
2022-09-07T20:28:47.390Z,1.15
2022-09-07T20:31:15.510Z,1.58
2022-09-07T20:33:43.312Z,1.80
2022-09-07T20:36:11.371Z,1.30
2022-09-07T20:38:41.603Z,1.10
2022-09-07T20:41:10.394Z,1.17
2022-09-07T20:43:37.487Z,1.00
2022-09-07T20:46:04.960Z,0.93
2022-09-07T20:48:32.344Z,1.00
2022-09-07T20:51:00.461Z,1.08
2022-09-07T20:53:28.044Z,1.10
2022-09-07T20:56:09.083Z,1.33
2022-09-07T21:01:03.509Z,1.17
2022-09-07T21:03:30.777Z,1.40
2022-09-07T21:06:02.879Z,1.40
2022-09-07T21:08:30.803Z,1.23
2022-09-07T21:10:57.861Z,1.17
2022-09-07T21:13:25.008Z,1.38
2022-09-07T21:15:52.170Z,1.23
2022-09-07T21:18:19.300Z,1.40
2022-09-07T21:21:18.429Z,1.45
2022-09-07T21:23:43.633Z,1.17
2022-09-07T21:26:10.730Z,1.42
2022-09-07T21:28:37.828Z,1.40
2022-09-07T21:31:06.359Z,1.30
2022-09-07T21:33:35.023Z,1.30
2022-09-07T21:36:12.431Z,0.98
2022-09-07T21:38:40.651Z,1.27
2022-09-07T21:41:11.725Z,1.10
2022-09-07T21:43:39.228Z,1.30
2022-09-07T21:46:09.582Z,1.38
2022-09-07T21:48:36.944Z,1.15
2022-09-07T21:51:04.439Z,1.20
2022-09-07T21:53:31.694Z,1.10
2022-09-07T21:55:59.940Z,1.20
2022-09-07T21:58:27.768Z,1.73
2022-09-07T22:00:55.052Z,1.17
2022-09-07T22:03:22.428Z,1.25
2022-09-07T22:05:49.514Z,1.13
2022-09-07T22:08:16.879Z,1.52
2022-09-07T22:10:45.041Z,1.50
2022-09-07T22:13:12.501Z,1.25
2022-09-07T22:15:40.852Z,1.10
2022-09-07T22:18:08.784Z,1.65
2022-09-07T22:20:36.086Z,1.10
2022-09-07T22:23:05.283Z,1.10
2022-09-07T22:25:32.867Z,1.67
2022-09-07T22:28:00.174Z,1.23
2022-09-07T22:30:27.334Z,1.10
2022-09-07T22:32:54.432Z,1.30
2022-09-07T22:35:22.258Z,1.30
2022-09-07T22:37:49.321Z,1.67
2022-09-07T22:40:16.562Z,1.23
2022-09-07T22:42:43.794Z,1.40
2022-09-07T22:45:11.031Z,1.20
2022-09-07T22:47:38.231Z,1.40
2022-09-07T22:50:05.550Z,1.30
2022-09-07T22:52:32.815Z,1.13
2022-09-07T22:54:59.884Z,1.45
2022-09-07T22:57:26.944Z,1.00
2022-09-07T22:59:54.048Z,1.27
2022-09-07T23:02:21.106Z,1.08
2022-09-07T23:04:48.219Z,1.13
2022-09-07T23:07:15.417Z,1.13
2022-09-07T23:09:42.474Z,0.98
2022-09-07T23:12:09.919Z,1.27
2022-09-07T23:14:37.033Z,1.52
2022-09-07T23:17:04.570Z,1.90
2022-09-07T23:19:31.880Z,1.30
2022-09-07T23:21:59.580Z,1.30
2022-09-07T23:24:26.711Z,1.20
2022-09-07T23:26:53.875Z,0.85
2022-09-07T23:29:21.162Z,1.40
2022-09-07T23:31:48.515Z,1.30
2022-09-07T23:34:15.818Z,1.33
2022-09-07T23:36:42.885Z,1.00
2022-09-07T23:39:09.959Z,1.02
2022-09-07T23:41:37.041Z,1.30
2022-09-07T23:44:04.610Z,1.15
2022-09-07T23:46:31.889Z,1.20
2022-09-07T23:48:59.248Z,1.23
2022-09-07T23:51:26.363Z,1.10
2022-09-07T23:53:53.716Z,1.15
2022-09-07T23:56:21.510Z,1.10
2022-09-07T23:58:48.835Z,1.20
